sensor_id;sensor_type;location;lat;lon;timestamp;temperature;humidity
17740;DHT22;8990;33.226;-97.150;2022-09-01T00:01:29;27.80;99.90
17740;DHT22;8990;33.226;-97.150;2022-09-01T00:04:00;27.80;99.90
17740;DHT22;8990;33.226;-97.150;2022-09-01T00:06:32;27.70;99.90
17740;DHT22;8990;33.226;-97.150;2022-09-01T00:09:05;27.50;99.90
17740;DHT22;8990;33.226;-97.150;2022-09-01T00:11:37;27.50;99.90
17740;DHT22;8990;33.226;-97.150;2022-09-01T00:14:08;27.40;99.90
17740;DHT22;8990;33.226;-97.150;2022-09-01T00:16:37;27.40;99.90
17740;DHT22;8990;33.226;-97.150;2022-09-01T00:19:07;27.30;99.90
17740;DHT22;8990;33.226;-97.150;2022-09-01T00:21:39;27.30;99.90
17740;DHT22;8990;33.226;-97.150;2022-09-01T00:24:10;27.20;99.90
17740;DHT22;8990;33.226;-97.150;2022-09-01T00:26:41;27.10;99.90
17740;DHT22;8990;33.226;-97.150;2022-09-01T00:29:11;27.10;99.90
17740;DHT22;8990;33.226;-97.150;2022-09-01T00:31:40;27.00;99.90
17740;DHT22;8990;33.226;-97.150;2022-09-01T00:34:10;27.00;99.90
17740;DHT22;8990;33.226;-97.150;2022-09-01T00:36:40;26.90;99.90
17740;DHT22;8990;33.226;-97.150;2022-09-01T00:39:10;26.90;99.90
17740;DHT22;8990;33.226;-97.150;2022-09-01T00:41:43;26.80;99.90
17740;DHT22;8990;33.226;-97.150;2022-09-01T00:44:16;26.80;99.90
17740;DHT22;8990;33.226;-97.150;2022-09-01T00:46:50;26.80;99.90
17740;DHT22;8990;33.226;-97.150;2022-09-01T00:49:26;26.80;99.90
17740;DHT22;8990;33.226;-97.150;2022-09-01T00:52:00;26.70;99.90
17740;DHT22;8990;33.226;-97.150;2022-09-01T00:54:33;26.60;99.90
17740;DHT22;8990;33.226;-97.150;2022-09-01T00:57:06;26.50;99.90
17740;DHT22;8990;33.226;-97.150;2022-09-01T00:59:42;26.50;99.90
17740;DHT22;8990;33.226;-97.150;2022-09-01T01:02:14;26.50;99.90
17740;DHT22;8990;33.226;-97.150;2022-09-01T01:04:43;26.40;99.90
17740;DHT22;8990;33.226;-97.150;2022-09-01T01:07:13;26.40;99.90
17740;DHT22;8990;33.226;-97.150;2022-09-01T01:09:44;26.40;99.90
17740;DHT22;8990;33.226;-97.150;2022-09-01T01:12:16;26.40;99.90
17740;DHT22;8990;33.226;-97.150;2022-09-01T01:14:45;26.30;99.90
17740;DHT22;8990;33.226;-97.150;2022-09-01T01:17:17;26.30;99.90
17740;DHT22;8990;33.226;-97.150;2022-09-01T01:19:49;26.30;99.90
17740;DHT22;8990;33.226;-97.150;2022-09-01T01:22:43;26.30;99.90
17740;DHT22;8990;33.226;-97.150;2022-09-01T01:25:38;26.30;99.90
17740;DHT22;8990;33.226;-97.150;2022-09-01T01:28:11;26.30;99.90
17740;DHT22;8990;33.226;-97.150;2022-09-01T01:30:45;26.20;99.90
17740;DHT22;8990;33.226;-97.150;2022-09-01T01:33:17;26.30;99.90
17740;DHT22;8990;33.226;-97.150;2022-09-01T01:35:48;26.20;99.90
17740;DHT22;8990;33.226;-97.150;2022-09-01T01:38:18;26.20;99.90
17740;DHT22;8990;33.226;-97.150;2022-09-01T01:40:51;26.10;99.90
17740;DHT22;8990;33.226;-97.150;2022-09-01T01:43:24;26.10;99.90
17740;DHT22;8990;33.226;-97.150;2022-09-01T01:45:56;26.00;99.90
17740;DHT22;8990;33.226;-97.150;2022-09-01T01:48:33;26.00;99.90
17740;DHT22;8990;33.226;-97.150;2022-09-01T01:51:03;26.00;99.90
17740;DHT22;8990;33.226;-97.150;2022-09-01T01:53:33;26.00;99.90
17740;DHT22;8990;33.226;-97.150;2022-09-01T01:56:04;26.10;99.90
17740;DHT22;8990;33.226;-97.150;2022-09-01T01:58:36;26.10;99.90
17740;DHT22;8990;33.226;-97.150;2022-09-01T02:01:11;26.10;99.90
17740;DHT22;8990;33.226;-97.150;2022-09-01T02:03:43;26.00;99.90
17740;DHT22;8990;33.226;-97.150;2022-09-01T02:06:12;26.00;99.90
17740;DHT22;8990;33.226;-97.150;2022-09-01T02:08:41;26.00;99.90
17740;DHT22;8990;33.226;-97.150;2022-09-01T02:11:13;25.90;99.90
17740;DHT22;8990;33.226;-97.150;2022-09-01T02:13:43;25.90;99.90
17740;DHT22;8990;33.226;-97.150;2022-09-01T02:16:14;25.80;99.90
17740;DHT22;8990;33.226;-97.150;2022-09-01T02:18:45;25.80;99.90
17740;DHT22;8990;33.226;-97.150;2022-09-01T02:21:17;25.80;99.90
17740;DHT22;8990;33.226;-97.150;2022-09-01T02:23:48;25.80;99.90
17740;DHT22;8990;33.226;-97.150;2022-09-01T02:26:29;25.70;99.90
17740;DHT22;8990;33.226;-97.150;2022-09-01T02:29:01;25.80;99.90
17740;DHT22;8990;33.226;-97.150;2022-09-01T02:31:33;25.70;99.90
17740;DHT22;8990;33.226;-97.150;2022-09-01T02:34:05;25.70;99.90
17740;DHT22;8990;33.226;-97.150;2022-09-01T02:36:37;25.80;99.90
17740;DHT22;8990;33.226;-97.150;2022-09-01T02:39:16;25.70;99.90
17740;DHT22;8990;33.226;-97.150;2022-09-01T02:41:49;25.70;99.90
17740;DHT22;8990;33.226;-97.150;2022-09-01T02:44:24;25.70;99.90
17740;DHT22;8990;33.226;-97.150;2022-09-01T02:46:53;25.70;99.90
17740;DHT22;8990;33.226;-97.150;2022-09-01T02:49:25;25.70;99.90
17740;DHT22;8990;33.226;-97.150;2022-09-01T02:51:57;25.70;99.90
17740;DHT22;8990;33.226;-97.150;2022-09-01T02:54:31;25.70;99.90
17740;DHT22;8990;33.226;-97.150;2022-09-01T02:57:03;25.60;99.90
17740;DHT22;8990;33.226;-97.150;2022-09-01T02:59:35;25.60;99.90
17740;DHT22;8990;33.226;-97.150;2022-09-01T03:02:04;25.60;99.90
17740;DHT22;8990;33.226;-97.150;2022-09-01T03:04:34;25.50;99.90
17740;DHT22;8990;33.226;-97.150;2022-09-01T03:07:05;25.50;99.90
17740;DHT22;8990;33.226;-97.150;2022-09-01T03:09:35;25.50;99.90
17740;DHT22;8990;33.226;-97.150;2022-09-01T03:12:09;25.50;99.90
17740;DHT22;8990;33.226;-97.150;2022-09-01T03:14:39;25.50;99.90
17740;DHT22;8990;33.226;-97.150;2022-09-01T03:17:08;25.50;99.90
17740;DHT22;8990;33.226;-97.150;2022-09-01T03:23:33;25.50;99.90
17740;DHT22;8990;33.226;-97.150;2022-09-01T03:26:02;25.40;99.90
17740;DHT22;8990;33.226;-97.150;2022-09-01T03:28:35;25.40;99.90
17740;DHT22;8990;33.226;-97.150;2022-09-01T03:31:05;25.40;99.90
17740;DHT22;8990;33.226;-97.150;2022-09-01T03:33:35;25.40;99.90
17740;DHT22;8990;33.226;-97.150;2022-09-01T03:36:09;25.40;99.90
17740;DHT22;8990;33.226;-97.150;2022-09-01T03:38:46;25.40;99.90
17740;DHT22;8990;33.226;-97.150;2022-09-01T03:41:19;25.40;99.90
17740;DHT22;8990;33.226;-97.150;2022-09-01T03:43:52;25.40;99.90
17740;DHT22;8990;33.226;-97.150;2022-09-01T03:46:25;25.40;99.90
17740;DHT22;8990;33.226;-97.150;2022-09-01T03:48:57;25.40;99.90
17740;DHT22;8990;33.226;-97.150;2022-09-01T03:51:33;25.40;99.90
17740;DHT22;8990;33.226;-97.150;2022-09-01T03:54:04;25.40;99.90
17740;DHT22;8990;33.226;-97.150;2022-09-01T03:56:33;25.30;99.90
17740;DHT22;8990;33.226;-97.150;2022-09-01T03:59:09;25.30;99.90
17740;DHT22;8990;33.226;-97.150;2022-09-01T04:01:45;25.30;99.90
17740;DHT22;8990;33.226;-97.150;2022-09-01T04:04:15;25.30;99.90
17740;DHT22;8990;33.226;-97.150;2022-09-01T04:06:46;25.30;99.90
17740;DHT22;8990;33.226;-97.150;2022-09-01T04:09:15;25.30;99.90
17740;DHT22;8990;33.226;-97.150;2022-09-01T04:11:44;25.20;99.90
17740;DHT22;8990;33.226;-97.150;2022-09-01T04:14:17;25.30;99.90
17740;DHT22;8990;33.226;-97.150;2022-09-01T04:16:49;25.30;99.90
17740;DHT22;8990;33.226;-97.150;2022-09-01T04:19:36;25.20;99.90
17740;DHT22;8990;33.226;-97.150;2022-09-01T04:22:06;25.30;99.90
17740;DHT22;8990;33.226;-97.150;2022-09-01T04:24:41;25.30;99.90
17740;DHT22;8990;33.226;-97.150;2022-09-01T04:27:12;25.20;99.90
17740;DHT22;8990;33.226;-97.150;2022-09-01T04:29:45;25.20;99.90
17740;DHT22;8990;33.226;-97.150;2022-09-01T04:32:14;25.20;99.90
17740;DHT22;8990;33.226;-97.150;2022-09-01T04:34:51;25.20;99.90
17740;DHT22;8990;33.226;-97.150;2022-09-01T04:37:21;25.20;99.90
17740;DHT22;8990;33.226;-97.150;2022-09-01T04:39:57;25.20;99.90
17740;DHT22;8990;33.226;-97.150;2022-09-01T04:42:28;25.20;99.90
17740;DHT22;8990;33.226;-97.150;2022-09-01T04:45:00;25.20;99.90
17740;DHT22;8990;33.226;-97.150;2022-09-01T04:47:30;25.20;99.90
17740;DHT22;8990;33.226;-97.150;2022-09-01T04:50:00;25.20;99.90
17740;DHT22;8990;33.226;-97.150;2022-09-01T04:52:30;25.20;99.90
17740;DHT22;8990;33.226;-97.150;2022-09-01T04:55:01;25.20;99.90
17740;DHT22;8990;33.226;-97.150;2022-09-01T04:57:32;25.20;99.90
17740;DHT22;8990;33.226;-97.150;2022-09-01T05:00:05;25.10;99.90
17740;DHT22;8990;33.226;-97.150;2022-09-01T05:02:50;25.10;99.90
17740;DHT22;8990;33.226;-97.150;2022-09-01T05:05:23;25.10;99.90
17740;DHT22;8990;33.226;-97.150;2022-09-01T05:07:55;25.10;99.90
17740;DHT22;8990;33.226;-97.150;2022-09-01T05:10:23;25.10;99.90
17740;DHT22;8990;33.226;-97.150;2022-09-01T05:13:15;25.10;99.90
17740;DHT22;8990;33.226;-97.150;2022-09-01T05:15:47;25.10;99.90
17740;DHT22;8990;33.226;-97.150;2022-09-01T05:18:20;25.00;99.90
17740;DHT22;8990;33.226;-97.150;2022-09-01T05:20:51;25.00;99.90
17740;DHT22;8990;33.226;-97.150;2022-09-01T05:23:21;25.00;99.90
17740;DHT22;8990;33.226;-97.150;2022-09-01T05:25:51;25.00;99.90
17740;DHT22;8990;33.226;-97.150;2022-09-01T05:28:22;25.00;99.90
17740;DHT22;8990;33.226;-97.150;2022-09-01T05:30:53;24.90;99.90
17740;DHT22;8990;33.226;-97.150;2022-09-01T05:33:23;24.90;99.90
17740;DHT22;8990;33.226;-97.150;2022-09-01T05:35:55;25.00;99.90
17740;DHT22;8990;33.226;-97.150;2022-09-01T05:38:28;24.90;99.90
17740;DHT22;8990;33.226;-97.150;2022-09-01T05:40:59;24.90;99.90
17740;DHT22;8990;33.226;-97.150;2022-09-01T05:43:30;24.90;99.90
17740;DHT22;8990;33.226;-97.150;2022-09-01T05:46:04;24.90;99.90
17740;DHT22;8990;33.226;-97.150;2022-09-01T05:48:36;24.90;99.90
17740;DHT22;8990;33.226;-97.150;2022-09-01T05:51:09;24.90;99.90
17740;DHT22;8990;33.226;-97.150;2022-09-01T05:53:41;24.90;99.90
17740;DHT22;8990;33.226;-97.150;2022-09-01T05:56:10;24.90;99.90
17740;DHT22;8990;33.226;-97.150;2022-09-01T05:58:41;24.80;99.90
17740;DHT22;8990;33.226;-97.150;2022-09-01T06:01:17;24.80;99.90
17740;DHT22;8990;33.226;-97.150;2022-09-01T06:03:50;24.70;99.90
17740;DHT22;8990;33.226;-97.150;2022-09-01T06:06:26;24.80;99.90
17740;DHT22;8990;33.226;-97.150;2022-09-01T06:08:57;24.70;99.90
17740;DHT22;8990;33.226;-97.150;2022-09-01T06:11:26;24.70;99.90
17740;DHT22;8990;33.226;-97.150;2022-09-01T06:13:59;24.70;99.90
17740;DHT22;8990;33.226;-97.150;2022-09-01T06:16:30;24.70;99.90
17740;DHT22;8990;33.226;-97.150;2022-09-01T06:19:03;24.70;99.90
17740;DHT22;8990;33.226;-97.150;2022-09-01T06:21:36;24.70;99.90
17740;DHT22;8990;33.226;-97.150;2022-09-01T06:24:07;24.70;99.90
17740;DHT22;8990;33.226;-97.150;2022-09-01T06:26:37;24.70;99.90
17740;DHT22;8990;33.226;-97.150;2022-09-01T06:29:09;24.60;99.90
17740;DHT22;8990;33.226;-97.150;2022-09-01T06:31:48;24.60;99.90
17740;DHT22;8990;33.226;-97.150;2022-09-01T06:34:20;24.60;99.90
17740;DHT22;8990;33.226;-97.150;2022-09-01T06:36:49;24.60;99.90
17740;DHT22;8990;33.226;-97.150;2022-09-01T06:39:20;24.60;99.90
17740;DHT22;8990;33.226;-97.150;2022-09-01T06:41:54;24.60;99.90
17740;DHT22;8990;33.226;-97.150;2022-09-01T06:44:30;24.50;99.90
17740;DHT22;8990;33.226;-97.150;2022-09-01T06:47:05;24.50;99.90
17740;DHT22;8990;33.226;-97.150;2022-09-01T06:49:35;24.50;99.90
17740;DHT22;8990;33.226;-97.150;2022-09-01T06:52:11;24.50;99.90
17740;DHT22;8990;33.226;-97.150;2022-09-01T06:54:42;24.50;99.90
17740;DHT22;8990;33.226;-97.150;2022-09-01T06:57:13;24.50;99.90
17740;DHT22;8990;33.226;-97.150;2022-09-01T06:59:42;24.50;99.90
17740;DHT22;8990;33.226;-97.150;2022-09-01T07:02:13;24.40;99.90
17740;DHT22;8990;33.226;-97.150;2022-09-01T07:05:13;24.40;99.90
17740;DHT22;8990;33.226;-97.150;2022-09-01T07:07:47;24.40;99.90
17740;DHT22;8990;33.226;-97.150;2022-09-01T07:10:41;24.40;99.90
17740;DHT22;8990;33.226;-97.150;2022-09-01T07:13:19;24.40;99.90
17740;DHT22;8990;33.226;-97.150;2022-09-01T07:15:50;24.30;99.90
17740;DHT22;8990;33.226;-97.150;2022-09-01T07:18:24;24.30;99.90
17740;DHT22;8990;33.226;-97.150;2022-09-01T07:20:54;24.30;99.90
17740;DHT22;8990;33.226;-97.150;2022-09-01T07:23:23;24.20;99.90
17740;DHT22;8990;33.226;-97.150;2022-09-01T07:25:53;24.20;99.90
17740;DHT22;8990;33.226;-97.150;2022-09-01T07:28:38;24.20;99.90
17740;DHT22;8990;33.226;-97.150;2022-09-01T07:31:07;24.20;99.90
17740;DHT22;8990;33.226;-97.150;2022-09-01T07:33:38;24.20;99.90
17740;DHT22;8990;33.226;-97.150;2022-09-01T07:36:08;24.20;99.90
17740;DHT22;8990;33.226;-97.150;2022-09-01T07:38:38;24.20;99.90
17740;DHT22;8990;33.226;-97.150;2022-09-01T07:41:09;24.30;99.90
17740;DHT22;8990;33.226;-97.150;2022-09-01T07:43:45;24.30;99.90
17740;DHT22;8990;33.226;-97.150;2022-09-01T07:46:33;24.20;99.90
17740;DHT22;8990;33.226;-97.150;2022-09-01T07:49:05;24.20;99.90
17740;DHT22;8990;33.226;-97.150;2022-09-01T07:51:34;24.20;99.90
17740;DHT22;8990;33.226;-97.150;2022-09-01T07:54:05;24.10;99.90
17740;DHT22;8990;33.226;-97.150;2022-09-01T07:56:38;24.10;99.90
17740;DHT22;8990;33.226;-97.150;2022-09-01T07:59:10;24.10;99.90
17740;DHT22;8990;33.226;-97.150;2022-09-01T08:01:49;24.00;99.90
17740;DHT22;8990;33.226;-97.150;2022-09-01T08:04:21;23.90;99.90
17740;DHT22;8990;33.226;-97.150;2022-09-01T08:06:50;23.90;99.90
17740;DHT22;8990;33.226;-97.150;2022-09-01T08:09:21;23.90;99.90
17740;DHT22;8990;33.226;-97.150;2022-09-01T08:11:51;23.90;99.90
17740;DHT22;8990;33.226;-97.150;2022-09-01T08:14:20;23.90;99.90
17740;DHT22;8990;33.226;-97.150;2022-09-01T08:16:50;23.90;99.90
17740;DHT22;8990;33.226;-97.150;2022-09-01T08:19:21;23.80;99.90
17740;DHT22;8990;33.226;-97.150;2022-09-01T08:22:11;23.90;99.90
17740;DHT22;8990;33.226;-97.150;2022-09-01T08:24:54;23.90;99.90
17740;DHT22;8990;33.226;-97.150;2022-09-01T08:27:24;23.90;99.90
17740;DHT22;8990;33.226;-97.150;2022-09-01T08:29:53;23.90;99.90
17740;DHT22;8990;33.226;-97.150;2022-09-01T08:32:23;23.90;99.90
17740;DHT22;8990;33.226;-97.150;2022-09-01T08:34:55;23.90;99.90
17740;DHT22;8990;33.226;-97.150;2022-09-01T08:37:25;23.80;99.90
17740;DHT22;8990;33.226;-97.150;2022-09-01T08:39:55;23.80;99.90
17740;DHT22;8990;33.226;-97.150;2022-09-01T08:42:39;23.80;99.90
17740;DHT22;8990;33.226;-97.150;2022-09-01T08:45:18;23.80;99.90
17740;DHT22;8990;33.226;-97.150;2022-09-01T08:47:53;23.80;99.90
17740;DHT22;8990;33.226;-97.150;2022-09-01T08:50:25;23.70;99.90
17740;DHT22;8990;33.226;-97.150;2022-09-01T08:53:21;23.70;99.90
17740;DHT22;8990;33.226;-97.150;2022-09-01T08:55:55;23.70;99.90
17740;DHT22;8990;33.226;-97.150;2022-09-01T08:58:30;23.70;99.90
17740;DHT22;8990;33.226;-97.150;2022-09-01T09:01:39;23.70;99.90
17740;DHT22;8990;33.226;-97.150;2022-09-01T09:04:45;23.70;99.90
17740;DHT22;8990;33.226;-97.150;2022-09-01T09:07:25;23.60;99.90
17740;DHT22;8990;33.226;-97.150;2022-09-01T09:10:02;23.70;99.90
17740;DHT22;8990;33.226;-97.150;2022-09-01T09:12:47;23.60;99.90
17740;DHT22;8990;33.226;-97.150;2022-09-01T09:15:25;23.50;99.90
17740;DHT22;8990;33.226;-97.150;2022-09-01T09:18:00;23.60;99.90
17740;DHT22;8990;33.226;-97.150;2022-09-01T09:20:34;23.50;99.90
17740;DHT22;8990;33.226;-97.150;2022-09-01T09:23:14;23.60;99.90
17740;DHT22;8990;33.226;-97.150;2022-09-01T09:25:44;23.70;99.90
17740;DHT22;8990;33.226;-97.150;2022-09-01T09:28:16;23.70;99.90
17740;DHT22;8990;33.226;-97.150;2022-09-01T09:30:46;23.70;99.90
17740;DHT22;8990;33.226;-97.150;2022-09-01T09:33:33;23.70;99.90
17740;DHT22;8990;33.226;-97.150;2022-09-01T09:36:17;23.70;99.90
17740;DHT22;8990;33.226;-97.150;2022-09-01T09:39:05;23.70;99.90
17740;DHT22;8990;33.226;-97.150;2022-09-01T09:41:37;23.70;99.90
17740;DHT22;8990;33.226;-97.150;2022-09-01T09:44:18;23.70;99.90
17740;DHT22;8990;33.226;-97.150;2022-09-01T09:46:48;23.70;99.90
17740;DHT22;8990;33.226;-97.150;2022-09-01T09:49:19;23.70;99.90
17740;DHT22;8990;33.226;-97.150;2022-09-01T09:51:53;23.70;99.90
17740;DHT22;8990;33.226;-97.150;2022-09-01T09:54:26;23.70;99.90
17740;DHT22;8990;33.226;-97.150;2022-09-01T09:57:11;23.70;99.90
17740;DHT22;8990;33.226;-97.150;2022-09-01T09:59:43;23.70;99.90
17740;DHT22;8990;33.226;-97.150;2022-09-01T10:02:24;23.70;99.90
17740;DHT22;8990;33.226;-97.150;2022-09-01T10:04:55;23.70;99.90
17740;DHT22;8990;33.226;-97.150;2022-09-01T10:07:28;23.70;99.90
17740;DHT22;8990;33.226;-97.150;2022-09-01T10:10:02;23.70;99.90
17740;DHT22;8990;33.226;-97.150;2022-09-01T10:12:32;23.70;99.90
17740;DHT22;8990;33.226;-97.150;2022-09-01T10:15:05;23.70;99.90
17740;DHT22;8990;33.226;-97.150;2022-09-01T10:17:38;23.70;99.90
17740;DHT22;8990;33.226;-97.150;2022-09-01T10:20:11;23.70;99.90
17740;DHT22;8990;33.226;-97.150;2022-09-01T10:22:43;23.70;99.90
17740;DHT22;8990;33.226;-97.150;2022-09-01T10:25:18;23.70;99.90
17740;DHT22;8990;33.226;-97.150;2022-09-01T10:27:50;23.60;99.90
17740;DHT22;8990;33.226;-97.150;2022-09-01T10:30:21;23.60;99.90
17740;DHT22;8990;33.226;-97.150;2022-09-01T10:32:53;23.60;99.90
17740;DHT22;8990;33.226;-97.150;2022-09-01T10:35:26;23.60;99.90
17740;DHT22;8990;33.226;-97.150;2022-09-01T10:37:58;23.60;99.90
17740;DHT22;8990;33.226;-97.150;2022-09-01T10:40:40;23.70;99.90
17740;DHT22;8990;33.226;-97.150;2022-09-01T10:43:33;23.70;99.90
17740;DHT22;8990;33.226;-97.150;2022-09-01T10:49:19;23.60;99.90
17740;DHT22;8990;33.226;-97.150;2022-09-01T10:51:49;23.60;99.90
17740;DHT22;8990;33.226;-97.150;2022-09-01T10:54:52;23.60;99.90
17740;DHT22;8990;33.226;-97.150;2022-09-01T10:57:49;23.70;99.90
17740;DHT22;8990;33.226;-97.150;2022-09-01T11:00:43;23.70;99.90
17740;DHT22;8990;33.226;-97.150;2022-09-01T11:03:32;23.70;99.90
17740;DHT22;8990;33.226;-97.150;2022-09-01T11:06:04;23.70;99.90
17740;DHT22;8990;33.226;-97.150;2022-09-01T11:08:43;23.70;99.90
17740;DHT22;8990;33.226;-97.150;2022-09-01T11:11:27;23.70;99.90
17740;DHT22;8990;33.226;-97.150;2022-09-01T11:14:00;23.80;99.90
17740;DHT22;8990;33.226;-97.150;2022-09-01T11:16:33;23.80;99.90
17740;DHT22;8990;33.226;-97.150;2022-09-01T11:19:37;23.80;99.90
17740;DHT22;8990;33.226;-97.150;2022-09-01T11:22:26;23.80;99.90
17740;DHT22;8990;33.226;-97.150;2022-09-01T11:28:07;23.90;99.90
17740;DHT22;8990;33.226;-97.150;2022-09-01T11:30:44;23.80;99.90
17740;DHT22;8990;33.226;-97.150;2022-09-01T11:33:38;23.80;99.90
17740;DHT22;8990;33.226;-97.150;2022-09-01T11:36:19;23.90;99.90
17740;DHT22;8990;33.226;-97.150;2022-09-01T11:38:54;23.90;99.90
17740;DHT22;8990;33.226;-97.150;2022-09-01T11:41:25;23.90;99.90
17740;DHT22;8990;33.226;-97.150;2022-09-01T11:44:00;23.90;99.90
17740;DHT22;8990;33.226;-97.150;2022-09-01T11:46:33;23.90;99.90
17740;DHT22;8990;33.226;-97.150;2022-09-01T11:49:06;24.00;99.90
17740;DHT22;8990;33.226;-97.150;2022-09-01T11:51:43;24.00;99.90
17740;DHT22;8990;33.226;-97.150;2022-09-01T11:54:14;24.00;99.90
17740;DHT22;8990;33.226;-97.150;2022-09-01T11:56:44;24.10;99.90
17740;DHT22;8990;33.226;-97.150;2022-09-01T11:59:13;24.00;99.90
17740;DHT22;8990;33.226;-97.150;2022-09-01T12:01:44;24.10;99.90
17740;DHT22;8990;33.226;-97.150;2022-09-01T12:04:21;24.00;99.90
17740;DHT22;8990;33.226;-97.150;2022-09-01T12:06:57;24.00;99.90
17740;DHT22;8990;33.226;-97.150;2022-09-01T12:09:39;23.90;99.90
17740;DHT22;8990;33.226;-97.150;2022-09-01T12:12:28;23.90;99.90
17740;DHT22;8990;33.226;-97.150;2022-09-01T12:14:57;23.90;99.90
17740;DHT22;8990;33.226;-97.150;2022-09-01T12:17:29;24.00;99.90
17740;DHT22;8990;33.226;-97.150;2022-09-01T12:20:20;24.00;99.90
17740;DHT22;8990;33.226;-97.150;2022-09-01T12:22:50;23.90;99.90
17740;DHT22;8990;33.226;-97.150;2022-09-01T12:25:21;24.00;99.90
17740;DHT22;8990;33.226;-97.150;2022-09-01T12:27:51;24.00;99.90
17740;DHT22;8990;33.226;-97.150;2022-09-01T12:30:22;24.00;99.90
17740;DHT22;8990;33.226;-97.150;2022-09-01T12:32:52;24.00;99.90
17740;DHT22;8990;33.226;-97.150;2022-09-01T12:35:24;24.00;99.90
17740;DHT22;8990;33.226;-97.150;2022-09-01T12:38:21;24.00;99.90
17740;DHT22;8990;33.226;-97.150;2022-09-01T12:40:52;24.10;99.90
17740;DHT22;8990;33.226;-97.150;2022-09-01T12:43:36;24.10;99.90
17740;DHT22;8990;33.226;-97.150;2022-09-01T12:46:07;24.10;99.90
17740;DHT22;8990;33.226;-97.150;2022-09-01T12:48:39;24.10;99.90
17740;DHT22;8990;33.226;-97.150;2022-09-01T12:51:18;24.10;99.90
17740;DHT22;8990;33.226;-97.150;2022-09-01T12:53:52;24.20;99.90
17740;DHT22;8990;33.226;-97.150;2022-09-01T12:56:27;24.20;99.90
17740;DHT22;8990;33.226;-97.150;2022-09-01T12:59:09;24.30;99.90
17740;DHT22;8990;33.226;-97.150;2022-09-01T13:01:40;24.30;99.90
17740;DHT22;8990;33.226;-97.150;2022-09-01T13:04:26;24.30;99.90
17740;DHT22;8990;33.226;-97.150;2022-09-01T13:07:02;24.30;99.90
17740;DHT22;8990;33.226;-97.150;2022-09-01T13:09:33;24.40;99.90
17740;DHT22;8990;33.226;-97.150;2022-09-01T13:12:15;24.50;99.90
17740;DHT22;8990;33.226;-97.150;2022-09-01T13:14:46;24.60;99.90
17740;DHT22;8990;33.226;-97.150;2022-09-01T13:17:15;24.60;99.90
17740;DHT22;8990;33.226;-97.150;2022-09-01T13:19:47;24.70;99.90
17740;DHT22;8990;33.226;-97.150;2022-09-01T13:22:16;24.70;99.90
17740;DHT22;8990;33.226;-97.150;2022-09-01T13:24:45;24.80;99.90
17740;DHT22;8990;33.226;-97.150;2022-09-01T13:27:14;24.90;99.90
17740;DHT22;8990;33.226;-97.150;2022-09-01T13:29:43;25.00;99.90
17740;DHT22;8990;33.226;-97.150;2022-09-01T13:32:13;25.00;99.90
17740;DHT22;8990;33.226;-97.150;2022-09-01T13:34:43;25.00;99.90
17740;DHT22;8990;33.226;-97.150;2022-09-01T13:37:14;25.10;99.90
17740;DHT22;8990;33.226;-97.150;2022-09-01T13:39:43;25.10;99.90
17740;DHT22;8990;33.226;-97.150;2022-09-01T13:42:14;25.20;99.90
17740;DHT22;8990;33.226;-97.150;2022-09-01T13:44:43;25.20;99.90
17740;DHT22;8990;33.226;-97.150;2022-09-01T13:47:13;25.30;99.90
17740;DHT22;8990;33.226;-97.150;2022-09-01T13:49:42;25.30;99.90
17740;DHT22;8990;33.226;-97.150;2022-09-01T13:52:14;25.40;99.90
17740;DHT22;8990;33.226;-97.150;2022-09-01T13:54:43;25.40;99.90
17740;DHT22;8990;33.226;-97.150;2022-09-01T13:57:13;25.50;99.90
17740;DHT22;8990;33.226;-97.150;2022-09-01T13:59:44;25.50;99.90
17740;DHT22;8990;33.226;-97.150;2022-09-01T14:02:14;25.60;99.90
17740;DHT22;8990;33.226;-97.150;2022-09-01T14:04:43;25.70;99.90
17740;DHT22;8990;33.226;-97.150;2022-09-01T14:07:14;25.70;99.90
17740;DHT22;8990;33.226;-97.150;2022-09-01T14:09:44;25.80;99.90
17740;DHT22;8990;33.226;-97.150;2022-09-01T14:12:15;25.90;99.90
17740;DHT22;8990;33.226;-97.150;2022-09-01T14:14:45;25.90;99.90
17740;DHT22;8990;33.226;-97.150;2022-09-01T14:17:14;26.00;99.90
17740;DHT22;8990;33.226;-97.150;2022-09-01T14:19:48;26.10;99.90
17740;DHT22;8990;33.226;-97.150;2022-09-01T14:22:19;26.20;99.90
17740;DHT22;8990;33.226;-97.150;2022-09-01T14:24:49;26.20;99.90
17740;DHT22;8990;33.226;-97.150;2022-09-01T14:27:18;26.30;99.90
17740;DHT22;8990;33.226;-97.150;2022-09-01T14:29:48;26.40;99.90
17740;DHT22;8990;33.226;-97.150;2022-09-01T14:32:19;26.50;99.90
17740;DHT22;8990;33.226;-97.150;2022-09-01T14:34:52;26.50;99.90
17740;DHT22;8990;33.226;-97.150;2022-09-01T14:37:23;26.50;99.90
17740;DHT22;8990;33.226;-97.150;2022-09-01T14:39:53;26.60;99.90
17740;DHT22;8990;33.226;-97.150;2022-09-01T14:42:24;26.70;99.90
17740;DHT22;8990;33.226;-97.150;2022-09-01T14:44:55;26.70;99.90
17740;DHT22;8990;33.226;-97.150;2022-09-01T14:47:24;26.70;99.90
17740;DHT22;8990;33.226;-97.150;2022-09-01T14:49:53;26.80;99.90
17740;DHT22;8990;33.226;-97.150;2022-09-01T14:52:24;26.70;99.90
17740;DHT22;8990;33.226;-97.150;2022-09-01T14:54:54;26.70;99.90
17740;DHT22;8990;33.226;-97.150;2022-09-01T14:57:23;26.70;99.90
17740;DHT22;8990;33.226;-97.150;2022-09-01T14:59:52;26.70;99.90
17740;DHT22;8990;33.226;-97.150;2022-09-01T15:02:21;26.70;99.90
17740;DHT22;8990;33.226;-97.150;2022-09-01T15:04:51;26.70;99.90
17740;DHT22;8990;33.226;-97.150;2022-09-01T15:07:23;26.80;99.90
17740;DHT22;8990;33.226;-97.150;2022-09-01T15:09:52;26.80;99.90
17740;DHT22;8990;33.226;-97.150;2022-09-01T15:12:23;26.80;99.90
17740;DHT22;8990;33.226;-97.150;2022-09-01T15:14:57;26.80;99.90
17740;DHT22;8990;33.226;-97.150;2022-09-01T15:17:27;26.80;99.90
17740;DHT22;8990;33.226;-97.150;2022-09-01T15:19:56;26.90;99.90
17740;DHT22;8990;33.226;-97.150;2022-09-01T15:22:49;26.90;99.90
17740;DHT22;8990;33.226;-97.150;2022-09-01T15:25:19;27.00;99.90
17740;DHT22;8990;33.226;-97.150;2022-09-01T15:27:48;27.00;99.90
17740;DHT22;8990;33.226;-97.150;2022-09-01T15:30:17;27.10;99.90
17740;DHT22;8990;33.226;-97.150;2022-09-01T15:32:49;27.20;99.90
17740;DHT22;8990;33.226;-97.150;2022-09-01T15:35:20;27.20;99.90
17740;DHT22;8990;33.226;-97.150;2022-09-01T15:37:51;27.40;99.90
17740;DHT22;8990;33.226;-97.150;2022-09-01T15:40:22;27.50;99.90
17740;DHT22;8990;33.226;-97.150;2022-09-01T15:42:52;27.70;99.90
17740;DHT22;8990;33.226;-97.150;2022-09-01T15:45:23;27.80;99.90
17740;DHT22;8990;33.226;-97.150;2022-09-01T15:47:53;27.90;99.90
17740;DHT22;8990;33.226;-97.150;2022-09-01T15:50:23;28.00;99.90
17740;DHT22;8990;33.226;-97.150;2022-09-01T15:52:56;28.10;99.90
17740;DHT22;8990;33.226;-97.150;2022-09-01T15:55:27;28.10;99.90
17740;DHT22;8990;33.226;-97.150;2022-09-01T15:57:58;28.20;99.90
17740;DHT22;8990;33.226;-97.150;2022-09-01T16:00:27;28.30;99.90
17740;DHT22;8990;33.226;-97.150;2022-09-01T16:02:57;28.30;99.90
17740;DHT22;8990;33.226;-97.150;2022-09-01T16:05:28;28.40;99.90